createdAt,value
2022-10-15T00:02:16.961Z,8.45
2022-10-15T00:04:42.821Z,10.88
2022-10-15T00:07:08.803Z,8.30
2022-10-15T00:09:34.615Z,8.25
2022-10-15T00:12:00.361Z,7.28
2022-10-15T00:14:26.234Z,7.85
2022-10-15T00:16:52.447Z,7.70
2022-10-15T00:19:18.202Z,6.88
2022-10-15T00:21:43.977Z,6.90
2022-10-15T00:24:09.725Z,6.45
2022-10-15T00:26:35.546Z,6.65
2022-10-15T00:29:02.981Z,6.85
2022-10-15T00:31:30.365Z,7.75
2022-10-15T00:33:58.326Z,8.20
2022-10-15T00:36:26.963Z,7.85
2022-10-15T00:38:53.238Z,8.98
2022-10-15T00:41:33.316Z,9.77
2022-10-15T00:44:21.892Z,9.40
2022-10-15T00:46:51.284Z,9.75
2022-10-15T00:49:27.482Z,9.48
2022-10-15T00:51:56.356Z,10.23
2022-10-15T00:54:24.803Z,9.57
2022-10-15T00:56:50.790Z,9.20
2022-10-15T00:59:19.500Z,10.20
2022-10-15T01:01:45.899Z,11.57
2022-10-15T01:04:12.316Z,11.48
2022-10-15T01:06:39.181Z,11.40
2022-10-15T01:09:05.544Z,12.73
2022-10-15T01:11:40.331Z,11.48
2022-10-15T01:14:32.822Z,11.70
2022-10-15T01:17:20.250Z,12.98
2022-10-15T01:20:07.486Z,12.45
2022-10-15T01:22:39.254Z,12.25
2022-10-15T01:25:43.103Z,12.70
2022-10-15T01:28:33.529Z,13.13
2022-10-15T01:31:06.691Z,13.18
2022-10-15T01:33:44.647Z,13.68
2022-10-15T01:36:18.684Z,13.10
2022-10-15T01:38:57.372Z,13.43
2022-10-15T01:41:35.476Z,13.68
2022-10-15T01:44:08.061Z,14.88
2022-10-15T01:46:51.683Z,14.13
2022-10-15T01:49:21.351Z,13.82
2022-10-15T01:51:50.180Z,15.02
2022-10-15T01:54:18.497Z,13.50
2022-10-15T01:56:51.279Z,15.98
2022-10-15T01:59:21.096Z,14.60
2022-10-15T02:01:46.996Z,15.50
2022-10-15T02:04:21.527Z,15.70
2022-10-15T02:06:55.582Z,16.00
2022-10-15T02:09:24.121Z,15.07
2022-10-15T02:12:02.657Z,16.10
2022-10-15T02:14:35.936Z,18.73
2022-10-15T02:17:07.646Z,15.38
2022-10-15T02:19:39.268Z,15.50
2022-10-15T02:22:13.513Z,14.75
2022-10-15T02:24:53.069Z,14.60
2022-10-15T02:27:22.514Z,13.90
2022-10-15T02:29:50.529Z,14.40
2022-10-15T02:32:18.593Z,13.43
2022-10-15T02:34:46.266Z,13.40
2022-10-15T02:37:12.625Z,14.07
2022-10-15T02:39:38.644Z,14.70
2022-10-15T02:42:05.594Z,15.18
2022-10-15T02:44:31.675Z,14.32
2022-10-15T02:46:59.307Z,15.60
2022-10-15T02:49:25.173Z,18.33
2022-10-15T02:51:50.942Z,13.68
2022-10-15T02:54:16.902Z,14.63
2022-10-15T02:56:42.765Z,14.95
2022-10-15T02:59:08.645Z,14.27
2022-10-15T03:01:35.005Z,15.73
2022-10-15T03:04:01.555Z,16.50
2022-10-15T03:06:27.471Z,19.02
2022-10-15T03:08:53.224Z,18.95
2022-10-15T03:11:18.981Z,20.42
2022-10-15T03:13:44.873Z,25.65
2022-10-15T03:16:11.369Z,21.20
2022-10-15T03:18:40.501Z,30.80
2022-10-15T03:21:07.085Z,28.17
2022-10-15T03:25:59.527Z,28.20
2022-10-15T03:28:25.449Z,33.20
2022-10-15T03:30:51.275Z,28.80
2022-10-15T03:33:17.809Z,31.17
2022-10-15T03:35:44.805Z,32.80
2022-10-15T03:38:10.611Z,36.97
2022-10-15T03:40:36.418Z,35.13
2022-10-15T03:43:02.194Z,37.30
2022-10-15T03:45:28.034Z,38.30
2022-10-15T03:47:53.901Z,35.55
2022-10-15T03:50:19.715Z,31.60
2022-10-15T03:52:45.743Z,34.50
2022-10-15T03:55:12.182Z,40.92
2022-10-15T03:57:38.779Z,36.92
2022-10-15T04:00:06.833Z,37.05
2022-10-15T04:02:32.825Z,35.83
2022-10-15T04:04:59.311Z,43.00
2022-10-15T04:07:25.356Z,36.50
2022-10-15T04:09:51.139Z,40.22
2022-10-15T04:12:17.831Z,39.00
2022-10-15T04:14:44.206Z,42.88
2022-10-15T04:17:10.112Z,41.25
2022-10-15T04:19:35.921Z,42.17
2022-10-15T04:22:02.146Z,44.20
2022-10-15T04:24:27.904Z,43.40
2022-10-15T04:26:54.342Z,42.22
2022-10-15T04:29:20.150Z,45.65
2022-10-15T04:31:45.908Z,43.88
2022-10-15T04:34:11.707Z,45.35
2022-10-15T04:36:37.842Z,45.55
2022-10-15T04:39:04.895Z,50.83
2022-10-15T04:41:30.800Z,46.30
2022-10-15T04:43:57.694Z,50.30
2022-10-15T04:46:23.670Z,45.65
2022-10-15T04:48:49.743Z,50.65
2022-10-15T04:51:20.520Z,47.53
2022-10-15T04:53:46.640Z,50.88
2022-10-15T04:56:17.043Z,49.92
2022-10-15T04:58:45.281Z,47.22
2022-10-15T05:01:13.844Z,56.28
2022-10-15T05:03:44.866Z,52.55
2022-10-15T05:06:21.523Z,50.67
2022-10-15T05:08:48.559Z,46.15
2022-10-15T05:11:22.894Z,49.95
2022-10-15T05:13:49.811Z,53.40
2022-10-15T05:16:18.083Z,50.85
2022-10-15T05:18:46.182Z,53.58
2022-10-15T05:21:13.219Z,51.75
2022-10-15T05:23:39.610Z,51.42
2022-10-15T05:26:08.301Z,48.28
2022-10-15T05:28:34.558Z,50.47
2022-10-15T05:31:08.613Z,63.45
2022-10-15T05:33:34.983Z,52.05
2022-10-15T05:36:18.188Z,53.38
2022-10-15T05:38:49.438Z,58.03
2022-10-15T05:41:15.525Z,62.13
2022-10-15T05:43:41.720Z,59.03
2022-10-15T05:46:08.214Z,59.33
2022-10-15T05:48:34.333Z,60.40
2022-10-15T05:51:05.220Z,61.75
2022-10-15T05:53:31.315Z,62.80
2022-10-15T05:56:00.664Z,63.25
2022-10-15T05:58:32.028Z,61.15
2022-10-15T06:01:03.420Z,64.43
2022-10-15T06:03:29.682Z,60.78
2022-10-15T06:05:55.730Z,67.03
2022-10-15T06:08:21.903Z,63.90
2022-10-15T06:10:48.308Z,68.43
2022-10-15T06:13:15.077Z,67.28
2022-10-15T06:15:42.686Z,73.97
2022-10-15T06:18:09.466Z,65.60
2022-10-15T06:20:36.506Z,65.80
2022-10-15T06:23:04.073Z,73.35
2022-10-15T06:25:30.280Z,74.85
2022-10-15T06:28:00.638Z,75.03
2022-10-15T06:30:26.459Z,67.80
2022-10-15T06:32:53.223Z,66.53
2022-10-15T06:35:21.020Z,61.25
2022-10-15T06:37:47.538Z,63.97
2022-10-15T06:40:13.869Z,63.03
2022-10-15T06:42:39.989Z,57.53
2022-10-15T06:45:07.004Z,53.97
2022-10-15T06:47:32.925Z,56.25
2022-10-15T06:49:58.776Z,55.58
2022-10-15T06:52:24.566Z,50.45
2022-10-15T06:54:50.807Z,56.65
2022-10-15T06:57:16.628Z,50.85
2022-10-15T06:59:42.361Z,52.38
2022-10-15T07:02:13.313Z,51.80
2022-10-15T07:04:39.433Z,45.97
2022-10-15T07:07:05.273Z,45.63
2022-10-15T07:09:31.146Z,45.35
2022-10-15T07:11:57.043Z,40.70
2022-10-15T07:14:22.804Z,41.35
2022-10-15T07:16:48.654Z,38.95
2022-10-15T07:19:14.508Z,37.70
2022-10-15T07:21:40.314Z,39.08
2022-10-15T07:24:06.192Z,42.33
2022-10-15T07:26:31.946Z,40.42
2022-10-15T07:28:57.739Z,37.13
2022-10-15T07:31:23.725Z,37.95
2022-10-15T07:33:49.584Z,37.22
2022-10-15T07:36:15.522Z,37.30
2022-10-15T07:38:41.528Z,42.03
2022-10-15T07:41:09.776Z,37.83
2022-10-15T07:43:36.394Z,37.30
2022-10-15T07:46:03.225Z,35.58
2022-10-15T07:48:30.050Z,35.72
2022-10-15T07:50:57.829Z,37.38
2022-10-15T07:53:24.286Z,35.83
2022-10-15T07:55:50.202Z,35.83
2022-10-15T07:58:16.218Z,35.42
2022-10-15T08:00:42.079Z,35.67
2022-10-15T08:03:08.236Z,32.80
2022-10-15T08:05:34.211Z,35.60
2022-10-15T08:08:00.254Z,32.90
2022-10-15T08:10:26.833Z,31.42
2022-10-15T08:12:52.755Z,34.70
2022-10-15T08:15:19.244Z,30.27
2022-10-15T08:17:45.463Z,29.38
2022-10-15T08:20:11.759Z,33.60
2022-10-15T08:22:37.545Z,30.58
2022-10-15T08:25:03.991Z,28.40
2022-10-15T08:27:30.114Z,29.67
2022-10-15T08:29:55.931Z,29.08
2022-10-15T08:32:22.137Z,29.83
2022-10-15T08:34:48.176Z,30.08
2022-10-15T08:39:40.851Z,26.55
2022-10-15T08:42:17.000Z,24.02
2022-10-15T08:44:49.338Z,19.92
2022-10-15T08:47:39.634Z,20.73
2022-10-15T08:50:35.614Z,20.48
2022-10-15T08:53:01.861Z,18.83
2022-10-15T08:55:34.964Z,18.45
2022-10-15T08:58:23.408Z,17.52
2022-10-15T09:00:52.601Z,16.25
2022-10-15T09:03:37.234Z,15.77
2022-10-15T09:06:25.042Z,12.38
2022-10-15T09:08:53.492Z,10.13
2022-10-15T09:11:35.747Z,9.52
2022-10-15T09:14:05.300Z,9.93
2022-10-15T09:16:38.359Z,7.82
2022-10-15T09:19:12.620Z,9.75
2022-10-15T09:21:38.585Z,6.53
2022-10-15T09:24:04.872Z,4.50
2022-10-15T09:26:51.088Z,4.40
2022-10-15T09:29:23.393Z,3.30
2022-10-15T09:32:17.151Z,5.70
2022-10-15T09:34:46.577Z,2.78
2022-10-15T09:37:38.126Z,2.60
2022-10-15T09:40:20.971Z,2.60
2022-10-15T09:42:50.345Z,3.55
2022-10-15T09:45:16.733Z,4.45
2022-10-15T09:47:43.555Z,2.10
2022-10-15T09:50:14.214Z,3.83
2022-10-15T09:52:59.401Z,2.72
2022-10-15T09:55:40.383Z,1.30
2022-10-15T09:58:17.363Z,1.20
2022-10-15T10:00:56.070Z,2.03
2022-10-15T10:03:24.582Z,1.55
2022-10-15T10:05:58.280Z,1.10
2022-10-15T10:08:28.793Z,1.95
2022-10-15T10:10:56.943Z,3.30
2022-10-15T10:13:37.300Z,1.52
2022-10-15T10:16:09.347Z,1.42
2022-10-15T10:18:37.017Z,3.67
2022-10-15T10:21:06.874Z,1.23
2022-10-15T10:23:38.789Z,1.17
2022-10-15T10:26:10.551Z,2.58
2022-10-15T10:28:50.685Z,1.38
2022-10-15T10:31:17.093Z,1.05
2022-10-15T10:33:51.650Z,2.28
2022-10-15T10:36:26.285Z,1.47
2022-10-15T10:39:26.981Z,1.17
2022-10-15T10:41:57.036Z,1.15
2022-10-15T10:44:29.808Z,2.55
2022-10-15T10:47:03.894Z,1.98
2022-10-15T10:49:32.279Z,1.15
2022-10-15T10:51:58.054Z,2.50
2022-10-15T10:54:25.240Z,1.05
2022-10-15T10:56:53.549Z,0.80
2022-10-15T10:59:27.525Z,2.28
2022-10-15T11:01:55.930Z,1.77
2022-10-15T11:04:29.554Z,1.33
2022-10-15T11:07:13.880Z,0.80
2022-10-15T11:09:53.820Z,1.00
2022-10-15T11:12:41.798Z,0.73
2022-10-15T11:15:25.240Z,1.80
2022-10-15T11:18:32.776Z,1.42
2022-10-15T11:21:15.029Z,2.13
2022-10-15T11:24:10.931Z,1.00
2022-10-15T11:27:19.349Z,2.53
2022-10-15T11:30:09.976Z,0.80
2022-10-15T11:33:12.664Z,2.55
2022-10-15T11:36:21.751Z,1.00
2022-10-15T11:39:15.051Z,1.00
2022-10-15T11:42:06.639Z,1.55
2022-10-15T11:44:50.681Z,4.15
2022-10-15T11:47:44.837Z,2.28
2022-10-15T11:50:16.421Z,1.02
2022-10-15T11:53:09.003Z,1.90
2022-10-15T11:55:41.175Z,0.90
2022-10-15T11:58:27.723Z,1.00
2022-10-15T12:00:59.511Z,1.55
2022-10-15T12:03:28.395Z,1.17
2022-10-15T12:06:00.108Z,1.42
2022-10-15T12:08:38.495Z,1.65
2022-10-15T12:11:38.882Z,1.10
2022-10-15T12:14:18.556Z,1.58
2022-10-15T12:17:24.536Z,2.53
2022-10-15T12:19:56.106Z,1.67
2022-10-15T12:22:39.199Z,2.05
2022-10-15T12:25:26.178Z,1.55
2022-10-15T12:28:14.004Z,1.23
2022-10-15T12:30:41.793Z,0.95
2022-10-15T12:33:32.331Z,1.00
2022-10-15T12:36:19.326Z,3.65
2022-10-15T12:39:00.844Z,1.02
2022-10-15T12:41:44.944Z,1.48
2022-10-15T12:44:27.953Z,2.63
2022-10-15T12:46:54.026Z,2.65
2022-10-15T12:49:26.095Z,1.75
2022-10-15T12:51:56.448Z,3.60
2022-10-15T12:54:41.545Z,2.35
2022-10-15T12:57:35.487Z,1.03
2022-10-15T13:00:22.052Z,2.42
2022-10-15T13:02:48.982Z,2.53
2022-10-15T13:05:30.217Z,0.95
2022-10-15T13:07:59.226Z,1.20
2022-10-15T13:10:33.377Z,1.65
2022-10-15T13:13:04.193Z,1.38
2022-10-15T13:15:31.840Z,3.60
2022-10-15T13:18:03.899Z,1.20
2022-10-15T13:20:56.053Z,0.80
2022-10-15T13:23:31.728Z,1.70
2022-10-15T13:26:16.998Z,5.47
2022-10-15T13:28:43.922Z,1.70
2022-10-15T13:31:22.606Z,1.77
2022-10-15T13:33:57.918Z,0.75
2022-10-15T13:36:27.044Z,1.83
2022-10-15T13:39:14.814Z,1.00
2022-10-15T13:41:40.586Z,1.92
2022-10-15T13:44:17.468Z,3.55
2022-10-15T13:46:43.277Z,1.63
2022-10-15T13:49:12.454Z,0.50
2022-10-15T13:51:42.810Z,1.73
2022-10-15T13:54:16.829Z,1.75
2022-10-15T13:56:50.342Z,3.13
2022-10-15T13:59:18.616Z,0.50
2022-10-15T14:01:47.562Z,2.22
2022-10-15T14:04:16.542Z,1.40
2022-10-15T14:06:56.960Z,0.77
2022-10-15T14:09:28.349Z,0.50
2022-10-15T14:11:59.077Z,0.70
2022-10-15T14:14:30.175Z,0.50
2022-10-15T14:16:57.640Z,2.83
2022-10-15T14:19:29.180Z,1.70
2022-10-15T14:21:57.062Z,0.63
2022-10-15T14:24:29.856Z,0.60
2022-10-15T14:27:01.732Z,0.90
2022-10-15T14:29:34.952Z,1.75
2022-10-15T14:32:01.648Z,2.28
2022-10-15T14:34:30.690Z,2.03
2022-10-15T14:36:56.668Z,2.15
2022-10-15T14:39:33.785Z,1.50
2022-10-15T14:42:05.307Z,1.90
2022-10-15T14:44:46.003Z,0.98
2022-10-15T14:47:19.864Z,0.93
2022-10-15T14:49:46.067Z,0.77
2022-10-15T14:52:16.553Z,0.90
2022-10-15T14:55:08.222Z,1.95
2022-10-15T14:57:39.706Z,2.17
2022-10-15T15:00:20.526Z,2.55
2022-10-15T15:02:46.897Z,1.52
2022-10-15T15:05:12.850Z,1.83
2022-10-15T15:07:39.985Z,0.90
2022-10-15T15:10:08.216Z,2.33
2022-10-15T15:12:35.446Z,0.50
2022-10-15T15:15:01.515Z,2.53
2022-10-15T15:17:28.924Z,0.63
2022-10-15T15:19:56.573Z,2.58
2022-10-15T15:22:33.636Z,0.60
2022-10-15T15:25:02.786Z,1.90
2022-10-15T15:27:31.090Z,2.17
2022-10-15T15:29:57.274Z,0.80
2022-10-15T15:32:24.069Z,1.55
2022-10-15T15:34:52.303Z,1.05
2022-10-15T15:37:23.042Z,1.15
2022-10-15T15:39:49.718Z,1.42
2022-10-15T15:42:23.930Z,0.90
2022-10-15T15:44:50.145Z,2.35
2022-10-15T15:47:16.228Z,1.40
2022-10-15T15:49:42.244Z,1.20
2022-10-15T15:52:16.268Z,0.90
2022-10-15T15:54:42.688Z,3.17
2022-10-15T15:57:08.858Z,1.92
2022-10-15T15:59:34.623Z,1.60
2022-10-15T16:02:00.954Z,1.15
2022-10-15T16:04:26.831Z,3.65
2022-10-15T16:06:52.662Z,0.88
2022-10-15T16:09:19.574Z,2.88
2022-10-15T16:11:45.690Z,1.58
2022-10-15T16:14:11.618Z,4.18
2022-10-15T16:16:37.650Z,0.88
2022-10-15T16:19:04.114Z,2.15
2022-10-15T16:21:30.811Z,5.68
2022-10-15T16:23:56.702Z,1.60
2022-10-15T16:26:22.996Z,3.10
2022-10-15T16:28:49.187Z,1.98
2022-10-15T16:31:21.468Z,2.47
2022-10-15T16:33:47.997Z,3.40
2022-10-15T16:36:15.188Z,4.03
2022-10-15T16:38:42.924Z,1.55
2022-10-15T16:41:10.161Z,2.88
2022-10-15T16:43:36.523Z,2.90
2022-10-15T16:46:02.701Z,4.03
2022-10-15T16:48:30.226Z,3.25
2022-10-15T16:51:01.519Z,6.68
2022-10-15T16:53:28.377Z,3.95
2022-10-15T16:56:08.689Z,3.60
2022-10-15T16:58:35.285Z,6.95
2022-10-15T17:01:05.880Z,4.60
2022-10-15T17:03:34.073Z,3.35
2022-10-15T17:06:04.692Z,4.00
2022-10-15T17:08:39.740Z,4.85
2022-10-15T17:11:10.927Z,4.07
2022-10-15T17:13:37.039Z,4.15
2022-10-15T17:16:12.257Z,6.57
2022-10-15T17:18:39.311Z,4.38
2022-10-15T17:21:08.555Z,4.38
2022-10-15T17:23:34.498Z,3.95
2022-10-15T17:26:09.028Z,4.22
2022-10-15T17:28:35.099Z,5.87
2022-10-15T17:31:03.011Z,4.97
2022-10-15T17:33:29.143Z,5.30
2022-10-15T17:35:55.021Z,5.80
2022-10-15T17:38:22.602Z,5.03
2022-10-15T17:40:48.635Z,7.38
2022-10-15T17:43:14.536Z,7.28
2022-10-15T17:45:40.324Z,6.45
2022-10-15T17:48:06.389Z,7.45
2022-10-15T17:50:32.240Z,8.65
2022-10-15T17:53:00.529Z,8.70
2022-10-15T17:55:27.579Z,10.13
2022-10-15T17:57:53.418Z,10.70
2022-10-15T18:00:19.346Z,11.55
2022-10-15T18:02:48.193Z,11.25
2022-10-15T18:07:45.231Z,17.20
2022-10-15T18:10:11.977Z,13.95
2022-10-15T18:12:38.071Z,14.35
2022-10-15T18:15:04.322Z,15.02
2022-10-15T18:17:30.326Z,15.45
2022-10-15T18:19:56.304Z,13.57
2022-10-15T18:22:22.150Z,13.65
2022-10-15T18:24:48.075Z,14.15
2022-10-15T18:27:14.090Z,14.23
2022-10-15T18:29:39.990Z,15.57
2022-10-15T18:32:05.955Z,12.82
2022-10-15T18:34:32.742Z,14.00
2022-10-15T18:36:58.980Z,12.75
2022-10-15T18:39:26.132Z,13.60
2022-10-15T18:41:51.930Z,13.55
2022-10-15T18:44:20.659Z,13.55
2022-10-15T18:46:46.704Z,16.15
2022-10-15T18:49:15.120Z,13.68
2022-10-15T18:51:41.319Z,13.13
2022-10-15T18:54:08.525Z,12.55
2022-10-15T18:56:34.448Z,13.70
2022-10-15T18:59:00.296Z,10.15
2022-10-15T19:01:27.886Z,10.50
2022-10-15T19:03:55.498Z,6.90
2022-10-15T19:06:27.537Z,10.10
2022-10-15T19:08:59.244Z,6.80
2022-10-15T19:11:26.489Z,24.52
2022-10-15T19:13:52.610Z,6.75
2022-10-15T19:16:18.548Z,5.38
2022-10-15T19:18:44.675Z,5.38
2022-10-15T19:21:11.735Z,7.78
2022-10-15T19:23:37.725Z,8.85
2022-10-15T19:26:11.684Z,7.05
2022-10-15T19:28:38.227Z,4.00
2022-10-15T19:31:06.837Z,5.70
2022-10-15T19:33:33.906Z,4.53
2022-10-15T19:36:01.095Z,8.10
2022-10-15T19:38:27.448Z,4.57
2022-10-15T19:40:54.113Z,4.65
2022-10-15T19:43:22.243Z,3.33
2022-10-15T19:45:48.721Z,4.53
2022-10-15T19:48:18.310Z,4.82
2022-10-15T19:50:46.420Z,6.45
2022-10-15T19:53:15.578Z,4.10
2022-10-15T19:55:41.958Z,7.78
2022-10-15T19:58:07.909Z,4.57
2022-10-15T20:00:34.165Z,5.25
2022-10-15T20:03:00.583Z,4.30
2022-10-15T20:05:26.638Z,6.43
2022-10-15T20:07:52.488Z,4.07
2022-10-15T20:10:20.524Z,4.60
2022-10-15T20:12:49.443Z,5.15
2022-10-15T20:15:15.456Z,4.55
2022-10-15T20:17:41.372Z,5.95
2022-10-15T20:20:07.313Z,7.70
2022-10-15T20:22:33.246Z,6.63
2022-10-15T20:24:59.010Z,8.48
2022-10-15T20:27:25.075Z,6.30
2022-10-15T20:29:50.933Z,4.60
2022-10-15T20:32:30.284Z,8.60
2022-10-15T20:34:59.927Z,6.88
2022-10-15T20:37:25.731Z,8.60
2022-10-15T20:39:51.635Z,5.10
2022-10-15T20:42:17.472Z,6.75
2022-10-15T20:44:43.315Z,7.68
2022-10-15T20:47:12.961Z,6.80
2022-10-15T20:49:42.914Z,6.18
2022-10-15T20:52:09.064Z,10.77
2022-10-15T20:54:35.134Z,7.22
2022-10-15T20:57:01.699Z,7.55
2022-10-15T20:59:30.169Z,9.02
2022-10-15T21:01:56.527Z,5.90
2022-10-15T21:04:22.412Z,6.93
2022-10-15T21:06:48.218Z,5.05
2022-10-15T21:09:14.331Z,7.35
2022-10-15T21:11:42.060Z,7.82
2022-10-15T21:14:08.996Z,12.45
2022-10-15T21:16:34.785Z,9.50
2022-10-15T21:19:00.834Z,10.05
2022-10-15T21:21:27.018Z,7.82
2022-10-15T21:23:53.222Z,7.32
2022-10-15T21:26:20.053Z,11.45
2022-10-15T21:28:45.958Z,8.43
2022-10-15T21:31:16.641Z,9.90
2022-10-15T21:33:42.962Z,10.70
2022-10-15T21:36:23.989Z,9.40
2022-10-15T21:39:05.594Z,7.85
2022-10-15T21:41:33.494Z,12.57
2022-10-15T21:44:00.783Z,9.50
2022-10-15T21:46:27.473Z,10.43
2022-10-15T21:48:54.194Z,6.90
2022-10-15T21:51:23.312Z,7.75
2022-10-15T21:53:49.423Z,8.43
2022-10-15T21:56:16.058Z,9.73
2022-10-15T21:58:42.317Z,6.22
2022-10-15T22:01:31.742Z,7.57
2022-10-15T22:04:00.495Z,9.82
2022-10-15T22:06:26.742Z,6.57
2022-10-15T22:08:52.692Z,6.68
2022-10-15T22:14:02.764Z,6.30
2022-10-15T22:16:31.700Z,6.10
2022-10-15T22:18:57.908Z,8.45
2022-10-15T22:21:29.073Z,6.95
2022-10-15T22:23:57.892Z,5.63
2022-10-15T22:26:27.128Z,4.22
2022-10-15T22:28:55.069Z,4.70
2022-10-15T22:31:21.623Z,4.70
2022-10-15T22:33:48.199Z,7.75
2022-10-15T22:36:19.919Z,9.63
2022-10-15T22:38:48.198Z,9.70
2022-10-15T22:41:15.084Z,4.65
2022-10-15T22:43:41.571Z,4.05
2022-10-15T22:46:07.361Z,4.57
2022-10-15T22:48:35.363Z,5.75
2022-10-15T22:51:02.474Z,4.38
2022-10-15T22:53:28.624Z,4.38
2022-10-15T22:55:59.291Z,4.53
2022-10-15T22:58:25.963Z,6.45
2022-10-15T23:00:52.656Z,4.25
2022-10-15T23:03:19.634Z,5.05
2022-10-15T23:05:53.280Z,6.85
2022-10-15T23:08:20.082Z,4.88
2022-10-15T23:10:45.936Z,5.72
2022-10-15T23:13:11.879Z,4.82
2022-10-15T23:15:37.765Z,4.10
2022-10-15T23:18:03.674Z,6.78
2022-10-15T23:20:32.480Z,7.10
2022-10-15T23:23:00.793Z,9.02
2022-10-15T23:25:26.580Z,5.18
2022-10-15T23:27:52.635Z,7.35
2022-10-15T23:30:24.756Z,4.63
2022-10-15T23:32:50.965Z,7.50
2022-10-15T23:35:16.874Z,4.30
2022-10-15T23:37:42.705Z,4.40
2022-10-15T23:40:09.352Z,5.35
2022-10-15T23:42:35.087Z,3.55
2022-10-15T23:45:00.889Z,3.70
2022-10-15T23:47:27.096Z,7.22
2022-10-15T23:49:53.164Z,2.78
2022-10-15T23:52:18.950Z,3.72
2022-10-15T23:54:44.732Z,3.58
2022-10-15T23:57:10.545Z,4.38
2022-10-15T23:59:36.270Z,2.97
